sensor_id;sensor_type;location;lat;lon;timestamp;temperature;humidity
51863;DHT22;37900;52.996;6.278;2023-04-24T00:00:11;17.10;95.70
51863;DHT22;37900;52.996;6.278;2023-04-24T00:02:41;17.10;95.70
51863;DHT22;37900;52.996;6.278;2023-04-24T00:05:12;17.10;95.60
51863;DHT22;37900;52.996;6.278;2023-04-24T00:07:39;17.20;95.60
51863;DHT22;37900;52.996;6.278;2023-04-24T00:10:06;17.10;95.50
51863;DHT22;37900;52.996;6.278;2023-04-24T00:12:32;17.10;95.50
51863;DHT22;37900;52.996;6.278;2023-04-24T00:14:57;17.10;95.40
51863;DHT22;37900;52.996;6.278;2023-04-24T00:17:23;17.20;95.40
51863;DHT22;37900;52.996;6.278;2023-04-24T00:19:49;17.10;95.40
51863;DHT22;37900;52.996;6.278;2023-04-24T00:22:24;17.10;95.30
51863;DHT22;37900;52.996;6.278;2023-04-24T00:24:50;17.10;95.30
51863;DHT22;37900;52.996;6.278;2023-04-24T00:27:16;17.10;95.20
51863;DHT22;37900;52.996;6.278;2023-04-24T00:29:41;17.10;95.20
51863;DHT22;37900;52.996;6.278;2023-04-24T00:32:07;17.10;95.20
51863;DHT22;37900;52.996;6.278;2023-04-24T00:34:33;17.10;95.40
51863;DHT22;37900;52.996;6.278;2023-04-24T00:36:59;17.10;95.10
51863;DHT22;37900;52.996;6.278;2023-04-24T00:39:25;17.10;95.10
51863;DHT22;37900;52.996;6.278;2023-04-24T00:41:50;17.10;95.30
51863;DHT22;37900;52.996;6.278;2023-04-24T00:44:16;17.10;95.00
51863;DHT22;37900;52.996;6.278;2023-04-24T00:46:43;17.10;95.00
51863;DHT22;37900;52.996;6.278;2023-04-24T00:49:08;17.10;94.90
51863;DHT22;37900;52.996;6.278;2023-04-24T00:51:34;17.10;94.90
51863;DHT22;37900;52.996;6.278;2023-04-24T00:54:01;17.10;94.90
51863;DHT22;37900;52.996;6.278;2023-04-24T00:56:27;17.10;94.80
51863;DHT22;37900;52.996;6.278;2023-04-24T00:58:53;17.10;94.80
51863;DHT22;37900;52.996;6.278;2023-04-24T01:01:20;17.10;94.80
51863;DHT22;37900;52.996;6.278;2023-04-24T01:03:47;17.10;94.70
51863;DHT22;37900;52.996;6.278;2023-04-24T01:06:14;17.10;94.70
51863;DHT22;37900;52.996;6.278;2023-04-24T01:08:40;17.10;94.70
51863;DHT22;37900;52.996;6.278;2023-04-24T01:11:06;17.10;94.60
51863;DHT22;37900;52.996;6.278;2023-04-24T01:13:33;17.10;94.60
51863;DHT22;37900;52.996;6.278;2023-04-24T01:15:59;17.10;94.60
51863;DHT22;37900;52.996;6.278;2023-04-24T01:18:25;17.10;94.50
51863;DHT22;37900;52.996;6.278;2023-04-24T01:20:54;17.10;94.50
51863;DHT22;37900;52.996;6.278;2023-04-24T01:23:22;17.10;94.50
51863;DHT22;37900;52.996;6.278;2023-04-24T01:25:49;17.00;94.40
51863;DHT22;37900;52.996;6.278;2023-04-24T01:28:15;17.00;94.40
51863;DHT22;37900;52.996;6.278;2023-04-24T01:30:41;17.10;94.40
51863;DHT22;37900;52.996;6.278;2023-04-24T01:33:07;17.10;94.40
51863;DHT22;37900;52.996;6.278;2023-04-24T01:35:33;17.10;94.40
51863;DHT22;37900;52.996;6.278;2023-04-24T01:37:59;17.00;94.30
51863;DHT22;37900;52.996;6.278;2023-04-24T01:40:25;17.00;94.30
51863;DHT22;37900;52.996;6.278;2023-04-24T01:42:51;17.00;94.20
51863;DHT22;37900;52.996;6.278;2023-04-24T01:45:17;17.00;94.20
51863;DHT22;37900;52.996;6.278;2023-04-24T01:47:44;17.00;94.20
51863;DHT22;37900;52.996;6.278;2023-04-24T01:50:10;17.00;94.10
51863;DHT22;37900;52.996;6.278;2023-04-24T01:52:36;17.00;94.10
51863;DHT22;37900;52.996;6.278;2023-04-24T01:55:03;17.00;94.10
51863;DHT22;37900;52.996;6.278;2023-04-24T01:57:30;17.00;94.10
51863;DHT22;37900;52.996;6.278;2023-04-24T01:59:56;17.00;94.00
51863;DHT22;37900;52.996;6.278;2023-04-24T02:02:22;17.00;94.00
51863;DHT22;37900;52.996;6.278;2023-04-24T02:04:55;17.00;94.00
51863;DHT22;37900;52.996;6.278;2023-04-24T02:07:21;17.00;94.00
51863;DHT22;37900;52.996;6.278;2023-04-24T02:09:47;17.00;94.00
51863;DHT22;37900;52.996;6.278;2023-04-24T02:12:13;17.00;93.90
51863;DHT22;37900;52.996;6.278;2023-04-24T02:14:39;17.00;93.90
51863;DHT22;37900;52.996;6.278;2023-04-24T02:17:05;17.00;93.90
51863;DHT22;37900;52.996;6.278;2023-04-24T02:19:31;17.00;93.80
51863;DHT22;37900;52.996;6.278;2023-04-24T02:21:56;17.00;93.80
51863;DHT22;37900;52.996;6.278;2023-04-24T02:24:22;17.00;93.80
51863;DHT22;37900;52.996;6.278;2023-04-24T02:26:48;17.00;93.80
51863;DHT22;37900;52.996;6.278;2023-04-24T02:29:13;17.00;93.80
51863;DHT22;37900;52.996;6.278;2023-04-24T02:31:40;17.00;93.70
51863;DHT22;37900;52.996;6.278;2023-04-24T02:34:05;17.00;93.70
51863;DHT22;37900;52.996;6.278;2023-04-24T02:36:31;17.00;93.70
51863;DHT22;37900;52.996;6.278;2023-04-24T02:38:57;17.00;93.70
51863;DHT22;37900;52.996;6.278;2023-04-24T02:41:22;17.00;93.60
51863;DHT22;37900;52.996;6.278;2023-04-24T02:43:48;17.00;93.60
51863;DHT22;37900;52.996;6.278;2023-04-24T02:46:14;17.00;93.60
51863;DHT22;37900;52.996;6.278;2023-04-24T02:48:39;17.00;93.60
51863;DHT22;37900;52.996;6.278;2023-04-24T02:51:05;17.00;93.60
51863;DHT22;37900;52.996;6.278;2023-04-24T02:53:32;16.90;93.50
51863;DHT22;37900;52.996;6.278;2023-04-24T02:55:58;17.00;93.50
51863;DHT22;37900;52.996;6.278;2023-04-24T02:58:24;17.00;93.50
51863;DHT22;37900;52.996;6.278;2023-04-24T03:00:54;17.00;93.50
51863;DHT22;37900;52.996;6.278;2023-04-24T03:03:21;16.90;93.40
51863;DHT22;37900;52.996;6.278;2023-04-24T03:05:47;17.00;93.40
51863;DHT22;37900;52.996;6.278;2023-04-24T03:08:12;16.90;93.40
51863;DHT22;37900;52.996;6.278;2023-04-24T03:10:40;16.90;93.40
51863;DHT22;37900;52.996;6.278;2023-04-24T03:13:05;17.00;93.40
51863;DHT22;37900;52.996;6.278;2023-04-24T03:15:31;16.90;93.30
51863;DHT22;37900;52.996;6.278;2023-04-24T03:17:57;16.90;93.30
51863;DHT22;37900;52.996;6.278;2023-04-24T03:20:23;16.90;93.30
51863;DHT22;37900;52.996;6.278;2023-04-24T03:22:49;16.90;93.20
51863;DHT22;37900;52.996;6.278;2023-04-24T03:25:14;17.00;93.30
51863;DHT22;37900;52.996;6.278;2023-04-24T03:27:40;17.00;93.20
51863;DHT22;37900;52.996;6.278;2023-04-24T03:30:07;16.90;93.20
51863;DHT22;37900;52.996;6.278;2023-04-24T03:32:33;16.90;93.20
51863;DHT22;37900;52.996;6.278;2023-04-24T03:34:59;16.90;93.20
51863;DHT22;37900;52.996;6.278;2023-04-24T03:37:25;16.90;93.10
51863;DHT22;37900;52.996;6.278;2023-04-24T03:39:52;16.90;93.10
51863;DHT22;37900;52.996;6.278;2023-04-24T03:42:18;16.90;93.10
51863;DHT22;37900;52.996;6.278;2023-04-24T03:44:43;16.90;93.10
51863;DHT22;37900;52.996;6.278;2023-04-24T03:47:09;16.90;93.10
51863;DHT22;37900;52.996;6.278;2023-04-24T03:49:35;16.90;93.10
51863;DHT22;37900;52.996;6.278;2023-04-24T03:52:01;16.90;93.10
51863;DHT22;37900;52.996;6.278;2023-04-24T03:54:27;16.90;93.00
51863;DHT22;37900;52.996;6.278;2023-04-24T03:56:53;16.90;93.00
51863;DHT22;37900;52.996;6.278;2023-04-24T03:59:19;16.90;93.00
51863;DHT22;37900;52.996;6.278;2023-04-24T04:01:45;16.90;93.00
51863;DHT22;37900;52.996;6.278;2023-04-24T04:04:11;16.90;92.90
51863;DHT22;37900;52.996;6.278;2023-04-24T04:06:36;16.90;92.90
51863;DHT22;37900;52.996;6.278;2023-04-24T04:09:02;16.90;92.90
51863;DHT22;37900;52.996;6.278;2023-04-24T04:11:28;16.90;92.90
51863;DHT22;37900;52.996;6.278;2023-04-24T04:13:54;16.90;92.90
51863;DHT22;37900;52.996;6.278;2023-04-24T04:16:20;16.90;92.90
51863;DHT22;37900;52.996;6.278;2023-04-24T04:18:46;16.90;92.80
51863;DHT22;37900;52.996;6.278;2023-04-24T04:21:12;16.90;92.80
51863;DHT22;37900;52.996;6.278;2023-04-24T04:23:37;16.90;92.80
51863;DHT22;37900;52.996;6.278;2023-04-24T04:26:03;16.90;92.80
51863;DHT22;37900;52.996;6.278;2023-04-24T04:28:30;16.90;92.80
51863;DHT22;37900;52.996;6.278;2023-04-24T04:30:58;16.90;92.80
51863;DHT22;37900;52.996;6.278;2023-04-24T04:33:24;16.90;92.80
51863;DHT22;37900;52.996;6.278;2023-04-24T04:35:51;16.90;92.70
51863;DHT22;37900;52.996;6.278;2023-04-24T04:38:22;16.80;92.70
51863;DHT22;37900;52.996;6.278;2023-04-24T04:40:48;16.80;92.70
51863;DHT22;37900;52.996;6.278;2023-04-24T04:43:14;16.70;92.60
51863;DHT22;37900;52.996;6.278;2023-04-24T04:45:40;16.90;92.70
51863;DHT22;37900;52.996;6.278;2023-04-24T04:48:08;16.80;92.60
51863;DHT22;37900;52.996;6.278;2023-04-24T04:50:35;16.90;92.70
51863;DHT22;37900;52.996;6.278;2023-04-24T04:53:01;16.90;92.60
51863;DHT22;37900;52.996;6.278;2023-04-24T04:55:27;16.80;92.60
51863;DHT22;37900;52.996;6.278;2023-04-24T04:57:52;16.80;92.60
51863;DHT22;37900;52.996;6.278;2023-04-24T05:00:19;16.80;92.60
51863;DHT22;37900;52.996;6.278;2023-04-24T05:02:44;16.80;92.50
51863;DHT22;37900;52.996;6.278;2023-04-24T05:05:10;16.80;92.50
51863;DHT22;37900;52.996;6.278;2023-04-24T05:07:36;16.80;92.50
51863;DHT22;37900;52.996;6.278;2023-04-24T05:10:02;16.90;92.50
51863;DHT22;37900;52.996;6.278;2023-04-24T05:12:28;16.80;92.50
51863;DHT22;37900;52.996;6.278;2023-04-24T05:14:54;16.80;92.50
51863;DHT22;37900;52.996;6.278;2023-04-24T05:17:20;16.80;92.50
51863;DHT22;37900;52.996;6.278;2023-04-24T05:19:45;16.80;92.40
51863;DHT22;37900;52.996;6.278;2023-04-24T05:22:11;16.80;92.40
51863;DHT22;37900;52.996;6.278;2023-04-24T05:24:38;16.80;92.40
51863;DHT22;37900;52.996;6.278;2023-04-24T05:27:03;16.80;92.40
51863;DHT22;37900;52.996;6.278;2023-04-24T05:29:32;16.80;92.40
51863;DHT22;37900;52.996;6.278;2023-04-24T05:31:59;16.80;92.40
51863;DHT22;37900;52.996;6.278;2023-04-24T05:34:25;16.80;92.30
51863;DHT22;37900;52.996;6.278;2023-04-24T05:36:50;16.80;92.30
51863;DHT22;37900;52.996;6.278;2023-04-24T05:39:16;16.80;92.30
51863;DHT22;37900;52.996;6.278;2023-04-24T05:41:42;16.80;92.30
51863;DHT22;37900;52.996;6.278;2023-04-24T05:44:08;16.80;92.30
51863;DHT22;37900;52.996;6.278;2023-04-24T05:46:34;16.80;92.30
51863;DHT22;37900;52.996;6.278;2023-04-24T05:49:03;16.80;92.30
51863;DHT22;37900;52.996;6.278;2023-04-24T05:51:29;16.80;92.20
51863;DHT22;37900;52.996;6.278;2023-04-24T05:53:54;16.80;92.20
51863;DHT22;37900;52.996;6.278;2023-04-24T05:56:20;16.80;92.20
51863;DHT22;37900;52.996;6.278;2023-04-24T05:58:46;16.80;92.20
51863;DHT22;37900;52.996;6.278;2023-04-24T06:01:13;16.80;92.20
51863;DHT22;37900;52.996;6.278;2023-04-24T06:03:40;16.80;92.20
51863;DHT22;37900;52.996;6.278;2023-04-24T06:06:07;16.80;92.20
51863;DHT22;37900;52.996;6.278;2023-04-24T06:08:33;16.80;92.20
51863;DHT22;37900;52.996;6.278;2023-04-24T06:10:59;16.80;92.20
51863;DHT22;37900;52.996;6.278;2023-04-24T06:13:25;16.80;92.20
51863;DHT22;37900;52.996;6.278;2023-04-24T06:15:51;16.80;92.20
51863;DHT22;37900;52.996;6.278;2023-04-24T06:18:17;16.80;92.10
51863;DHT22;37900;52.996;6.278;2023-04-24T06:20:43;16.80;92.10
51863;DHT22;37900;52.996;6.278;2023-04-24T06:23:08;16.80;92.10
51863;DHT22;37900;52.996;6.278;2023-04-24T06:25:34;16.80;92.10
51863;DHT22;37900;52.996;6.278;2023-04-24T06:28:00;16.80;92.10
51863;DHT22;37900;52.996;6.278;2023-04-24T06:30:27;16.70;92.10
51863;DHT22;37900;52.996;6.278;2023-04-24T06:32:53;16.70;92.00
51863;DHT22;37900;52.996;6.278;2023-04-24T06:35:19;16.70;92.00
51863;DHT22;37900;52.996;6.278;2023-04-24T06:37:45;16.70;92.00
51863;DHT22;37900;52.996;6.278;2023-04-24T06:40:11;16.70;92.00
51863;DHT22;37900;52.996;6.278;2023-04-24T06:42:37;16.70;92.00
51863;DHT22;37900;52.996;6.278;2023-04-24T06:45:03;16.70;92.00
51863;DHT22;37900;52.996;6.278;2023-04-24T06:47:29;16.70;92.00
51863;DHT22;37900;52.996;6.278;2023-04-24T06:49:55;16.70;92.10
51863;DHT22;37900;52.996;6.278;2023-04-24T06:52:21;16.80;92.10
51863;DHT22;37900;52.996;6.278;2023-04-24T06:54:47;16.70;92.20
51863;DHT22;37900;52.996;6.278;2023-04-24T06:57:12;16.80;92.20
51863;DHT22;37900;52.996;6.278;2023-04-24T06:59:38;16.70;92.30
51863;DHT22;37900;52.996;6.278;2023-04-24T07:02:04;16.80;92.50
51863;DHT22;37900;52.996;6.278;2023-04-24T07:04:30;16.70;92.60
51863;DHT22;37900;52.996;6.278;2023-04-24T07:06:56;16.80;92.80
51863;DHT22;37900;52.996;6.278;2023-04-24T07:09:25;16.80;92.90
51863;DHT22;37900;52.996;6.278;2023-04-24T07:11:51;16.80;93.00
51863;DHT22;37900;52.996;6.278;2023-04-24T07:14:17;16.80;93.10
51863;DHT22;37900;52.996;6.278;2023-04-24T07:16:43;16.80;93.20
51863;DHT22;37900;52.996;6.278;2023-04-24T07:19:10;16.80;93.30
51863;DHT22;37900;52.996;6.278;2023-04-24T07:21:36;16.80;93.30
51863;DHT22;37900;52.996;6.278;2023-04-24T07:24:02;16.80;93.40
51863;DHT22;37900;52.996;6.278;2023-04-24T07:26:29;16.80;93.40
51863;DHT22;37900;52.996;6.278;2023-04-24T07:28:55;16.80;93.50
51863;DHT22;37900;52.996;6.278;2023-04-24T07:31:21;16.80;93.60
51863;DHT22;37900;52.996;6.278;2023-04-24T07:33:48;16.80;93.70
51863;DHT22;37900;52.996;6.278;2023-04-24T07:36:14;16.80;93.70
51863;DHT22;37900;52.996;6.278;2023-04-24T07:38:45;16.80;93.80
51863;DHT22;37900;52.996;6.278;2023-04-24T07:41:12;16.80;93.80
51863;DHT22;37900;52.996;6.278;2023-04-24T07:43:38;16.80;93.90
51863;DHT22;37900;52.996;6.278;2023-04-24T07:46:03;16.90;94.00
51863;DHT22;37900;52.996;6.278;2023-04-24T07:48:29;16.80;94.00
51863;DHT22;37900;52.996;6.278;2023-04-24T07:50:55;16.90;94.10
51863;DHT22;37900;52.996;6.278;2023-04-24T07:53:21;16.90;94.10
51863;DHT22;37900;52.996;6.278;2023-04-24T07:55:46;16.90;94.20
51863;DHT22;37900;52.996;6.278;2023-04-24T07:58:12;16.90;94.30
51863;DHT22;37900;52.996;6.278;2023-04-24T08:00:38;16.90;94.30
51863;DHT22;37900;52.996;6.278;2023-04-24T08:03:04;16.90;94.40
51863;DHT22;37900;52.996;6.278;2023-04-24T08:05:29;16.90;94.40
51863;DHT22;37900;52.996;6.278;2023-04-24T08:07:55;16.90;94.40
51863;DHT22;37900;52.996;6.278;2023-04-24T08:10:22;16.90;94.50
51863;DHT22;37900;52.996;6.278;2023-04-24T08:12:48;16.90;94.80
51863;DHT22;37900;52.996;6.278;2023-04-24T08:15:17;16.90;94.50
51863;DHT22;37900;52.996;6.278;2023-04-24T08:17:43;16.90;94.60
51863;DHT22;37900;52.996;6.278;2023-04-24T08:20:10;16.90;94.60
51863;DHT22;37900;52.996;6.278;2023-04-24T08:22:39;16.90;94.70
51863;DHT22;37900;52.996;6.278;2023-04-24T08:25:06;16.90;94.90
51863;DHT22;37900;52.996;6.278;2023-04-24T08:27:32;16.90;94.70
51863;DHT22;37900;52.996;6.278;2023-04-24T08:29:57;16.90;94.70
51863;DHT22;37900;52.996;6.278;2023-04-24T08:32:25;16.90;94.80
51863;DHT22;37900;52.996;6.278;2023-04-24T08:34:54;16.90;94.80
51863;DHT22;37900;52.996;6.278;2023-04-24T08:37:26;16.90;94.90
51863;DHT22;37900;52.996;6.278;2023-04-24T08:39:52;16.90;95.00
51863;DHT22;37900;52.996;6.278;2023-04-24T08:42:19;16.90;95.00
51863;DHT22;37900;52.996;6.278;2023-04-24T08:44:47;16.90;95.10
51863;DHT22;37900;52.996;6.278;2023-04-24T08:47:15;16.90;95.10
51863;DHT22;37900;52.996;6.278;2023-04-24T08:49:40;16.90;95.10
51863;DHT22;37900;52.996;6.278;2023-04-24T08:52:07;16.90;95.10
51863;DHT22;37900;52.996;6.278;2023-04-24T08:54:36;16.90;95.10
51863;DHT22;37900;52.996;6.278;2023-04-24T08:57:02;16.90;95.10
51863;DHT22;37900;52.996;6.278;2023-04-24T08:59:30;16.90;95.10
51863;DHT22;37900;52.996;6.278;2023-04-24T09:01:57;16.90;95.10
51863;DHT22;37900;52.996;6.278;2023-04-24T09:04:24;16.90;95.10
51863;DHT22;37900;52.996;6.278;2023-04-24T09:06:57;16.90;95.10
51863;DHT22;37900;52.996;6.278;2023-04-24T09:09:24;16.90;95.10
51863;DHT22;37900;52.996;6.278;2023-04-24T09:11:51;16.90;95.20
51863;DHT22;37900;52.996;6.278;2023-04-24T09:14:19;17.00;95.20
51863;DHT22;37900;52.996;6.278;2023-04-24T09:16:46;16.90;95.20
51863;DHT22;37900;52.996;6.278;2023-04-24T09:19:12;16.90;95.20
51863;DHT22;37900;52.996;6.278;2023-04-24T09:21:38;16.90;95.20
51863;DHT22;37900;52.996;6.278;2023-04-24T09:24:07;16.90;95.20
51863;DHT22;37900;52.996;6.278;2023-04-24T09:26:35;17.00;95.30
51863;DHT22;37900;52.996;6.278;2023-04-24T09:29:03;17.00;95.30
51863;DHT22;37900;52.996;6.278;2023-04-24T09:31:29;17.00;95.40
51863;DHT22;37900;52.996;6.278;2023-04-24T09:33:59;17.00;95.40
51863;DHT22;37900;52.996;6.278;2023-04-24T09:36:34;17.00;95.40
51863;DHT22;37900;52.996;6.278;2023-04-24T09:39:04;17.00;95.40
51863;DHT22;37900;52.996;6.278;2023-04-24T09:41:32;17.00;95.40
51863;DHT22;37900;52.996;6.278;2023-04-24T09:44:17;17.00;95.40
51863;DHT22;37900;52.996;6.278;2023-04-24T09:46:45;17.00;95.40
51863;DHT22;37900;52.996;6.278;2023-04-24T09:49:15;17.00;95.40
51863;DHT22;37900;52.996;6.278;2023-04-24T09:51:41;17.00;95.40
51863;DHT22;37900;52.996;6.278;2023-04-24T09:54:14;17.00;95.40
51863;DHT22;37900;52.996;6.278;2023-04-24T09:56:49;17.00;95.40
51863;DHT22;37900;52.996;6.278;2023-04-24T09:59:17;17.00;95.40
51863;DHT22;37900;52.996;6.278;2023-04-24T10:01:43;17.00;95.40
51863;DHT22;37900;52.996;6.278;2023-04-24T10:04:23;17.00;95.40
51863;DHT22;37900;52.996;6.278;2023-04-24T10:06:51;17.10;95.40
51863;DHT22;37900;52.996;6.278;2023-04-24T10:09:19;17.00;95.40
51863;DHT22;37900;52.996;6.278;2023-04-24T10:11:48;17.10;95.40
51863;DHT22;37900;52.996;6.278;2023-04-24T10:14:22;17.10;95.40
51863;DHT22;37900;52.996;6.278;2023-04-24T10:16:49;17.10;95.40
51863;DHT22;37900;52.996;6.278;2023-04-24T10:19:16;17.10;95.40
51863;DHT22;37900;52.996;6.278;2023-04-24T10:21:44;17.10;95.40
51863;DHT22;37900;52.996;6.278;2023-04-24T10:24:18;17.10;95.40
51863;DHT22;37900;52.996;6.278;2023-04-24T10:26:46;17.10;95.40
51863;DHT22;37900;52.996;6.278;2023-04-24T10:29:15;17.10;95.40
51863;DHT22;37900;52.996;6.278;2023-04-24T10:31:41;17.10;95.40
51863;DHT22;37900;52.996;6.278;2023-04-24T10:34:08;17.10;95.40
51863;DHT22;37900;52.996;6.278;2023-04-24T10:36:36;17.10;95.40
51863;DHT22;37900;52.996;6.278;2023-04-24T10:39:05;17.10;95.40
51863;DHT22;37900;52.996;6.278;2023-04-24T10:41:32;17.10;95.60
51863;DHT22;37900;52.996;6.278;2023-04-24T10:44:11;17.10;95.40
51863;DHT22;37900;52.996;6.278;2023-04-24T10:46:38;17.10;95.40
51863;DHT22;37900;52.996;6.278;2023-04-24T10:49:05;17.10;95.50
51863;DHT22;37900;52.996;6.278;2023-04-24T10:51:50;17.10;95.50
51863;DHT22;37900;52.996;6.278;2023-04-24T10:54:29;17.10;95.50
51863;DHT22;37900;52.996;6.278;2023-04-24T10:59:43;17.20;95.60
51863;DHT22;37900;52.996;6.278;2023-04-24T11:02:09;17.20;95.70
51863;DHT22;37900;52.996;6.278;2023-04-24T11:04:35;17.20;95.70
51863;DHT22;37900;52.996;6.278;2023-04-24T11:07:02;17.20;95.80
51863;DHT22;37900;52.996;6.278;2023-04-24T11:09:30;17.20;95.90
51863;DHT22;37900;52.996;6.278;2023-04-24T11:12:12;17.20;96.10
51863;DHT22;37900;52.996;6.278;2023-04-24T11:15:02;17.20;96.20
51863;DHT22;37900;52.996;6.278;2023-04-24T11:17:36;17.30;96.40
51863;DHT22;37900;52.996;6.278;2023-04-24T11:20:10;17.20;96.30
51863;DHT22;37900;52.996;6.278;2023-04-24T11:22:38;17.30;96.40
51863;DHT22;37900;52.996;6.278;2023-04-24T11:25:06;17.30;96.50
51863;DHT22;37900;52.996;6.278;2023-04-24T11:27:43;17.30;96.60
51863;DHT22;37900;52.996;6.278;2023-04-24T11:30:10;17.30;96.60
51863;DHT22;37900;52.996;6.278;2023-04-24T11:32:38;17.30;96.70
51863;DHT22;37900;52.996;6.278;2023-04-24T11:37:41;17.30;96.80
51863;DHT22;37900;52.996;6.278;2023-04-24T11:40:09;17.30;96.80
51863;DHT22;37900;52.996;6.278;2023-04-24T11:42:40;17.30;96.80
51863;DHT22;37900;52.996;6.278;2023-04-24T11:45:18;17.30;97.10
51863;DHT22;37900;52.996;6.278;2023-04-24T11:47:45;17.40;96.90
51863;DHT22;37900;52.996;6.278;2023-04-24T11:50:12;17.30;96.90
51863;DHT22;37900;52.996;6.278;2023-04-24T11:52:40;17.40;96.90
51863;DHT22;37900;52.996;6.278;2023-04-24T11:57:57;17.40;96.90
51863;DHT22;37900;52.996;6.278;2023-04-24T12:00:26;17.40;96.90
51863;DHT22;37900;52.996;6.278;2023-04-24T12:03:06;17.40;96.90
51863;DHT22;37900;52.996;6.278;2023-04-24T12:05:32;17.40;96.90
51863;DHT22;37900;52.996;6.278;2023-04-24T12:08:00;17.40;96.90
51863;DHT22;37900;52.996;6.278;2023-04-24T12:10:28;17.50;97.00
51863;DHT22;37900;52.996;6.278;2023-04-24T12:12:56;17.40;97.00
51863;DHT22;37900;52.996;6.278;2023-04-24T12:15:23;17.40;97.00
51863;DHT22;37900;52.996;6.278;2023-04-24T12:17:51;17.50;97.00
51863;DHT22;37900;52.996;6.278;2023-04-24T12:20:17;17.40;97.00
51863;DHT22;37900;52.996;6.278;2023-04-24T12:22:54;17.50;97.00
51863;DHT22;37900;52.996;6.278;2023-04-24T12:25:22;17.50;97.00
51863;DHT22;37900;52.996;6.278;2023-04-24T12:28:12;17.50;97.00
51863;DHT22;37900;52.996;6.278;2023-04-24T12:30:43;17.50;96.90
51863;DHT22;37900;52.996;6.278;2023-04-24T12:33:09;17.50;97.00
51863;DHT22;37900;52.996;6.278;2023-04-24T12:35:35;17.50;97.00
51863;DHT22;37900;52.996;6.278;2023-04-24T12:38:09;17.50;97.00
51863;DHT22;37900;52.996;6.278;2023-04-24T12:40:35;17.50;97.00
51863;DHT22;37900;52.996;6.278;2023-04-24T12:43:01;17.50;97.00
51863;DHT22;37900;52.996;6.278;2023-04-24T12:45:27;17.50;96.90
51863;DHT22;37900;52.996;6.278;2023-04-24T12:47:53;17.50;96.90
51863;DHT22;37900;52.996;6.278;2023-04-24T12:50:19;17.50;96.90
51863;DHT22;37900;52.996;6.278;2023-04-24T12:52:45;17.60;96.90
51863;DHT22;37900;52.996;6.278;2023-04-24T12:55:11;17.50;96.90
51863;DHT22;37900;52.996;6.278;2023-04-24T12:57:38;17.50;96.90
51863;DHT22;37900;52.996;6.278;2023-04-24T13:00:06;17.50;96.80
51863;DHT22;37900;52.996;6.278;2023-04-24T13:02:33;17.50;96.90
51863;DHT22;37900;52.996;6.278;2023-04-24T13:04:59;17.50;96.80
51863;DHT22;37900;52.996;6.278;2023-04-24T13:07:26;17.50;96.80
51863;DHT22;37900;52.996;6.278;2023-04-24T13:09:54;17.50;96.80
51863;DHT22;37900;52.996;6.278;2023-04-24T13:12:20;17.50;96.70
51863;DHT22;37900;52.996;6.278;2023-04-24T13:14:46;17.50;96.70
51863;DHT22;37900;52.996;6.278;2023-04-24T13:17:12;17.50;96.70
51863;DHT22;37900;52.996;6.278;2023-04-24T13:19:40;17.50;96.70
51863;DHT22;37900;52.996;6.278;2023-04-24T13:22:06;17.50;96.60
51863;DHT22;37900;52.996;6.278;2023-04-24T13:24:33;17.50;96.60
51863;DHT22;37900;52.996;6.278;2023-04-24T13:26:59;17.50;96.60
51863;DHT22;37900;52.996;6.278;2023-04-24T13:29:26;17.50;96.60
51863;DHT22;37900;52.996;6.278;2023-04-24T13:31:53;17.50;96.50
51863;DHT22;37900;52.996;6.278;2023-04-24T13:34:26;17.50;96.50
51863;DHT22;37900;52.996;6.278;2023-04-24T13:36:56;17.50;96.50
51863;DHT22;37900;52.996;6.278;2023-04-24T13:39:23;17.50;96.40
51863;DHT22;37900;52.996;6.278;2023-04-24T13:41:50;17.50;96.70
51863;DHT22;37900;52.996;6.278;2023-04-24T13:44:17;17.50;96.40
51863;DHT22;37900;52.996;6.278;2023-04-24T13:46:43;17.50;96.40
51863;DHT22;37900;52.996;6.278;2023-04-24T13:49:11;17.50;96.40
51863;DHT22;37900;52.996;6.278;2023-04-24T13:51:37;17.50;96.40
51863;DHT22;37900;52.996;6.278;2023-04-24T13:54:03;17.60;96.60
51863;DHT22;37900;52.996;6.278;2023-04-24T13:56:29;17.50;96.30
51863;DHT22;37900;52.996;6.278;2023-04-24T13:58:54;17.50;96.20
51863;DHT22;37900;52.996;6.278;2023-04-24T14:01:20;17.50;96.20
51863;DHT22;37900;52.996;6.278;2023-04-24T14:03:53;17.50;96.20
51863;DHT22;37900;52.996;6.278;2023-04-24T14:06:20;17.50;96.40
51863;DHT22;37900;52.996;6.278;2023-04-24T14:08:46;17.50;96.10
51863;DHT22;37900;52.996;6.278;2023-04-24T14:11:11;17.50;96.10
51863;DHT22;37900;52.996;6.278;2023-04-24T14:13:38;17.50;96.10
51863;DHT22;37900;52.996;6.278;2023-04-24T14:16:04;17.50;96.10
51863;DHT22;37900;52.996;6.278;2023-04-24T14:18:30;17.50;96.10
51863;DHT22;37900;52.996;6.278;2023-04-24T14:20:56;17.50;96.10
51863;DHT22;37900;52.996;6.278;2023-04-24T14:23:22;17.50;96.10
51863;DHT22;37900;52.996;6.278;2023-04-24T14:25:47;17.50;96.10
51863;DHT22;37900;52.996;6.278;2023-04-24T14:28:17;17.50;96.10
51863;DHT22;37900;52.996;6.278;2023-04-24T14:30:43;17.50;96.10
51863;DHT22;37900;52.996;6.278;2023-04-24T14:33:09;17.50;96.10
51863;DHT22;37900;52.996;6.278;2023-04-24T14:35:36;17.50;96.10
51863;DHT22;37900;52.996;6.278;2023-04-24T14:38:01;17.50;96.10
51863;DHT22;37900;52.996;6.278;2023-04-24T14:40:27;17.50;96.10
51863;DHT22;37900;52.996;6.278;2023-04-24T14:42:53;17.50;96.10
51863;DHT22;37900;52.996;6.278;2023-04-24T14:45:19;17.50;96.10
51863;DHT22;37900;52.996;6.278;2023-04-24T14:47:45;17.50;96.10
51863;DHT22;37900;52.996;6.278;2023-04-24T14:50:11;17.50;96.10
51863;DHT22;37900;52.996;6.278;2023-04-24T14:52:38;17.60;96.20
51863;DHT22;37900;52.996;6.278;2023-04-24T14:55:04;17.50;96.10
51863;DHT22;37900;52.996;6.278;2023-04-24T14:57:30;17.50;96.10
51863;DHT22;37900;52.996;6.278;2023-04-24T14:59:56;17.50;96.10
51863;DHT22;37900;52.996;6.278;2023-04-24T15:02:22;17.50;96.10
51863;DHT22;37900;52.996;6.278;2023-04-24T15:04:47;17.50;96.20
51863;DHT22;37900;52.996;6.278;2023-04-24T15:07:13;17.60;96.20
51863;DHT22;37900;52.996;6.278;2023-04-24T15:09:39;17.50;96.20
51863;DHT22;37900;52.996;6.278;2023-04-24T15:12:05;17.50;96.30
51863;DHT22;37900;52.996;6.278;2023-04-24T15:14:31;17.50;96.30
51863;DHT22;37900;52.996;6.278;2023-04-24T15:16:56;17.50;96.30
51863;DHT22;37900;52.996;6.278;2023-04-24T15:19:22;17.50;96.30
51863;DHT22;37900;52.996;6.278;2023-04-24T15:21:48;17.50;96.30
51863;DHT22;37900;52.996;6.278;2023-04-24T15:24:14;17.50;96.30
51863;DHT22;37900;52.996;6.278;2023-04-24T15:26:40;17.50;96.40
51863;DHT22;37900;52.996;6.278;2023-04-24T15:29:05;17.50;96.40
51863;DHT22;37900;52.996;6.278;2023-04-24T15:31:31;17.60;96.40
51863;DHT22;37900;52.996;6.278;2023-04-24T15:33:57;17.50;96.40
51863;DHT22;37900;52.996;6.278;2023-04-24T15:36:22;17.50;96.40